Redmond, Oregon
Current Conditions -  °F | °C
As of 3:56 AM on Thursday 23 Oct 2014 (Local Time) from KRDM Reporting Station
Broken Clouds Broken Clouds  
Wind Chill: 12°   Ceiling: 4500
Heat Index: 12°   Visibility: 10mi
Dew Point:   Wind: 10mph
Humidity: 74%   Direction: 220°SW
Pressure: 29.82"   Gusts: NA
Location:  44.27°N, 121.17°W
Report Text: KRDM 231056Z AUTO 22009KT 10SM BKN045 BKN055 12/07 A2982 RMK AO2 RAB01E10 SLP085 P0000 T01170072
Loading
Personal Weather Stations






























Interactive Weather Map
Tropical Storm Tracking
New forecast layout! Learn more

10-Day Weather Forecast

Advertisements
Track Severe Weather on mobile